sensor_id;sensor_type;location;lat;lon;timestamp;temperature;humidity
73277;DHT22;61501;43.316;5.372;2024-01-30T00:00:17;11.00;99.90
73277;DHT22;61501;43.316;5.372;2024-01-30T00:02:43;11.00;99.90
73277;DHT22;61501;43.316;5.372;2024-01-30T00:05:08;11.00;99.90
73277;DHT22;61501;43.316;5.372;2024-01-30T00:07:34;10.90;99.90
73277;DHT22;61501;43.316;5.372;2024-01-30T00:10:00;10.90;99.90
73277;DHT22;61501;43.316;5.372;2024-01-30T00:12:25;10.90;99.90
73277;DHT22;61501;43.316;5.372;2024-01-30T00:14:51;10.80;99.90
73277;DHT22;61501;43.316;5.372;2024-01-30T00:17:17;10.80;99.90
73277;DHT22;61501;43.316;5.372;2024-01-30T00:19:44;10.80;99.90
73277;DHT22;61501;43.316;5.372;2024-01-30T00:22:13;10.80;99.90
73277;DHT22;61501;43.316;5.372;2024-01-30T00:24:38;10.70;99.90
73277;DHT22;61501;43.316;5.372;2024-01-30T00:27:04;10.70;99.90
73277;DHT22;61501;43.316;5.372;2024-01-30T00:29:30;10.70;99.90
73277;DHT22;61501;43.316;5.372;2024-01-30T00:31:59;10.70;99.90
73277;DHT22;61501;43.316;5.372;2024-01-30T00:34:24;10.60;99.90
73277;DHT22;61501;43.316;5.372;2024-01-30T00:36:53;10.60;99.90
73277;DHT22;61501;43.316;5.372;2024-01-30T00:39:18;10.60;99.90
73277;DHT22;61501;43.316;5.372;2024-01-30T00:41:45;10.60;99.90
73277;DHT22;61501;43.316;5.372;2024-01-30T00:44:10;10.60;99.90
73277;DHT22;61501;43.316;5.372;2024-01-30T00:46:36;10.50;99.90
73277;DHT22;61501;43.316;5.372;2024-01-30T00:49:02;10.50;99.90
73277;DHT22;61501;43.316;5.372;2024-01-30T00:51:27;10.50;99.90
73277;DHT22;61501;43.316;5.372;2024-01-30T00:53:55;10.50;99.90
73277;DHT22;61501;43.316;5.372;2024-01-30T00:56:21;10.50;99.90
73277;DHT22;61501;43.316;5.372;2024-01-30T00:58:46;10.40;99.90
73277;DHT22;61501;43.316;5.372;2024-01-30T01:01:12;10.40;99.90
73277;DHT22;61501;43.316;5.372;2024-01-30T01:03:38;10.40;99.30
73277;DHT22;61501;43.316;5.372;2024-01-30T01:06:06;10.30;99.20
73277;DHT22;61501;43.316;5.372;2024-01-30T01:08:31;10.30;98.90
73277;DHT22;61501;43.316;5.372;2024-01-30T01:10:57;10.30;98.10
73277;DHT22;61501;43.316;5.372;2024-01-30T01:13:23;10.30;98.20
73277;DHT22;61501;43.316;5.372;2024-01-30T01:15:48;10.30;98.20
73277;DHT22;61501;43.316;5.372;2024-01-30T01:18:14;10.20;97.20
73277;DHT22;61501;43.316;5.372;2024-01-30T01:20:39;10.20;97.20
73277;DHT22;61501;43.316;5.372;2024-01-30T01:23:05;10.20;97.40
73277;DHT22;61501;43.316;5.372;2024-01-30T01:25:31;10.20;96.30
73277;DHT22;61501;43.316;5.372;2024-01-30T01:27:56;10.10;96.40
73277;DHT22;61501;43.316;5.372;2024-01-30T01:30:22;10.10;95.80
73277;DHT22;61501;43.316;5.372;2024-01-30T01:32:49;10.00;96.00
73277;DHT22;61501;43.316;5.372;2024-01-30T01:35:21;10.00;95.80
73277;DHT22;61501;43.316;5.372;2024-01-30T01:37:48;10.00;95.50
73277;DHT22;61501;43.316;5.372;2024-01-30T01:40:23;10.00;95.50
73277;DHT22;61501;43.316;5.372;2024-01-30T01:42:52;10.00;95.20
73277;DHT22;61501;43.316;5.372;2024-01-30T01:45:19;9.90;95.60
73277;DHT22;61501;43.316;5.372;2024-01-30T01:47:47;9.90;95.80
73277;DHT22;61501;43.316;5.372;2024-01-30T01:50:15;10.00;95.30
73277;DHT22;61501;43.316;5.372;2024-01-30T01:52:46;9.90;94.80
73277;DHT22;61501;43.316;5.372;2024-01-30T01:55:13;9.90;94.80
73277;DHT22;61501;43.316;5.372;2024-01-30T01:57:40;9.90;94.50
73277;DHT22;61501;43.316;5.372;2024-01-30T02:00:07;9.90;94.20
73277;DHT22;61501;43.316;5.372;2024-01-30T02:02:36;9.90;94.30
73277;DHT22;61501;43.316;5.372;2024-01-30T02:05:02;9.90;94.00
73277;DHT22;61501;43.316;5.372;2024-01-30T02:07:28;9.80;94.20
73277;DHT22;61501;43.316;5.372;2024-01-30T02:09:54;9.80;93.50
73277;DHT22;61501;43.316;5.372;2024-01-30T02:12:20;9.80;94.00
73277;DHT22;61501;43.316;5.372;2024-01-30T02:14:47;9.80;94.00
73277;DHT22;61501;43.316;5.372;2024-01-30T02:17:13;9.80;93.80
73277;DHT22;61501;43.316;5.372;2024-01-30T02:19:39;9.80;93.90
73277;DHT22;61501;43.316;5.372;2024-01-30T02:22:05;9.80;94.60
73277;DHT22;61501;43.316;5.372;2024-01-30T02:24:31;9.80;94.60
73277;DHT22;61501;43.316;5.372;2024-01-30T02:26:56;9.80;94.10
73277;DHT22;61501;43.316;5.372;2024-01-30T02:29:22;9.80;94.20
73277;DHT22;61501;43.316;5.372;2024-01-30T02:31:48;9.70;93.90
73277;DHT22;61501;43.316;5.372;2024-01-30T02:34:14;9.80;93.90
73277;DHT22;61501;43.316;5.372;2024-01-30T02:36:43;9.70;93.90
73277;DHT22;61501;43.316;5.372;2024-01-30T02:39:09;9.70;93.50
73277;DHT22;61501;43.316;5.372;2024-01-30T02:41:35;9.60;93.30
73277;DHT22;61501;43.316;5.372;2024-01-30T02:44:02;9.60;93.70
73277;DHT22;61501;43.316;5.372;2024-01-30T02:46:27;9.60;93.90
73277;DHT22;61501;43.316;5.372;2024-01-30T02:48:53;9.60;93.80
73277;DHT22;61501;43.316;5.372;2024-01-30T02:51:19;9.60;93.90
73277;DHT22;61501;43.316;5.372;2024-01-30T02:53:45;9.60;93.50
73277;DHT22;61501;43.316;5.372;2024-01-30T02:56:10;9.50;93.00
73277;DHT22;61501;43.316;5.372;2024-01-30T02:58:37;9.50;93.50
73277;DHT22;61501;43.316;5.372;2024-01-30T03:01:03;9.50;93.10
73277;DHT22;61501;43.316;5.372;2024-01-30T03:03:29;9.50;93.30
73277;DHT22;61501;43.316;5.372;2024-01-30T03:05:54;9.50;93.40
73277;DHT22;61501;43.316;5.372;2024-01-30T03:08:20;9.50;92.60
73277;DHT22;61501;43.316;5.372;2024-01-30T03:10:46;9.50;92.70
73277;DHT22;61501;43.316;5.372;2024-01-30T03:13:12;9.50;92.40
73277;DHT22;61501;43.316;5.372;2024-01-30T03:15:37;9.50;92.40
73277;DHT22;61501;43.316;5.372;2024-01-30T03:18:03;9.50;92.30
73277;DHT22;61501;43.316;5.372;2024-01-30T03:20:29;9.40;92.40
73277;DHT22;61501;43.316;5.372;2024-01-30T03:22:55;9.40;92.10
73277;DHT22;61501;43.316;5.372;2024-01-30T03:25:21;9.40;91.50
73277;DHT22;61501;43.316;5.372;2024-01-30T03:27:47;9.40;91.60
73277;DHT22;61501;43.316;5.372;2024-01-30T03:30:12;9.40;91.70
73277;DHT22;61501;43.316;5.372;2024-01-30T03:32:38;9.30;91.60
73277;DHT22;61501;43.316;5.372;2024-01-30T03:35:04;9.30;91.50
73277;DHT22;61501;43.316;5.372;2024-01-30T03:37:30;9.30;91.40
73277;DHT22;61501;43.316;5.372;2024-01-30T03:39:55;9.30;91.70
73277;DHT22;61501;43.316;5.372;2024-01-30T03:42:24;9.30;91.00
73277;DHT22;61501;43.316;5.372;2024-01-30T03:44:49;9.30;90.90
73277;DHT22;61501;43.316;5.372;2024-01-30T03:47:19;9.40;91.70
73277;DHT22;61501;43.316;5.372;2024-01-30T03:49:45;9.40;91.70
73277;DHT22;61501;43.316;5.372;2024-01-30T03:52:10;9.40;91.50
73277;DHT22;61501;43.316;5.372;2024-01-30T03:54:36;9.30;91.30
73277;DHT22;61501;43.316;5.372;2024-01-30T03:57:02;9.30;91.40
73277;DHT22;61501;43.316;5.372;2024-01-30T03:59:27;9.30;91.00
73277;DHT22;61501;43.316;5.372;2024-01-30T04:01:54;9.30;91.30
73277;DHT22;61501;43.316;5.372;2024-01-30T04:04:20;9.20;91.40
73277;DHT22;61501;43.316;5.372;2024-01-30T04:06:46;9.30;91.80
73277;DHT22;61501;43.316;5.372;2024-01-30T04:09:15;9.20;91.60
73277;DHT22;61501;43.316;5.372;2024-01-30T04:11:41;9.20;92.10
73277;DHT22;61501;43.316;5.372;2024-01-30T04:14:08;9.20;91.90
73277;DHT22;61501;43.316;5.372;2024-01-30T04:16:34;9.20;91.80
73277;DHT22;61501;43.316;5.372;2024-01-30T04:18:59;9.10;92.30
73277;DHT22;61501;43.316;5.372;2024-01-30T04:21:25;9.10;92.20
73277;DHT22;61501;43.316;5.372;2024-01-30T04:23:51;9.20;92.40
73277;DHT22;61501;43.316;5.372;2024-01-30T04:26:17;9.20;91.70
73277;DHT22;61501;43.316;5.372;2024-01-30T04:28:46;9.20;92.00
73277;DHT22;61501;43.316;5.372;2024-01-30T04:31:12;9.20;92.00
73277;DHT22;61501;43.316;5.372;2024-01-30T04:33:37;9.20;91.40
73277;DHT22;61501;43.316;5.372;2024-01-30T04:36:03;9.20;91.60
73277;DHT22;61501;43.316;5.372;2024-01-30T04:38:31;9.20;91.30
73277;DHT22;61501;43.316;5.372;2024-01-30T04:40:56;9.20;91.30
73277;DHT22;61501;43.316;5.372;2024-01-30T04:43:22;9.20;91.20
73277;DHT22;61501;43.316;5.372;2024-01-30T04:45:48;9.20;91.40
73277;DHT22;61501;43.316;5.372;2024-01-30T04:48:14;9.20;91.80
73277;DHT22;61501;43.316;5.372;2024-01-30T04:50:42;9.20;91.50
73277;DHT22;61501;43.316;5.372;2024-01-30T04:53:08;9.20;91.10
73277;DHT22;61501;43.316;5.372;2024-01-30T04:55:35;9.20;91.40
73277;DHT22;61501;43.316;5.372;2024-01-30T04:58:01;9.20;91.50
73277;DHT22;61501;43.316;5.372;2024-01-30T05:00:27;9.30;91.60
73277;DHT22;61501;43.316;5.372;2024-01-30T05:02:55;9.30;91.70
73277;DHT22;61501;43.316;5.372;2024-01-30T05:05:21;9.20;91.80
73277;DHT22;61501;43.316;5.372;2024-01-30T05:07:47;9.20;92.20
73277;DHT22;61501;43.316;5.372;2024-01-30T05:10:13;9.20;91.80
73277;DHT22;61501;43.316;5.372;2024-01-30T05:12:39;9.20;91.90
73277;DHT22;61501;43.316;5.372;2024-01-30T05:15:08;9.10;92.00
73277;DHT22;61501;43.316;5.372;2024-01-30T05:17:34;9.10;91.60
73277;DHT22;61501;43.316;5.372;2024-01-30T05:20:00;9.10;92.20
73277;DHT22;61501;43.316;5.372;2024-01-30T05:22:25;9.10;92.30
73277;DHT22;61501;43.316;5.372;2024-01-30T05:24:51;9.10;91.90
73277;DHT22;61501;43.316;5.372;2024-01-30T05:27:17;9.10;92.20
73277;DHT22;61501;43.316;5.372;2024-01-30T05:29:42;9.10;92.60
73277;DHT22;61501;43.316;5.372;2024-01-30T05:32:08;9.00;92.60
73277;DHT22;61501;43.316;5.372;2024-01-30T05:34:35;9.10;93.00
73277;DHT22;61501;43.316;5.372;2024-01-30T05:37:01;9.10;92.90
73277;DHT22;61501;43.316;5.372;2024-01-30T05:39:27;9.20;93.10
73277;DHT22;61501;43.316;5.372;2024-01-30T05:41:52;9.20;93.40
73277;DHT22;61501;43.316;5.372;2024-01-30T05:44:18;9.10;93.10
73277;DHT22;61501;43.316;5.372;2024-01-30T05:46:43;9.10;93.80
73277;DHT22;61501;43.316;5.372;2024-01-30T05:49:09;9.10;94.10
73277;DHT22;61501;43.316;5.372;2024-01-30T05:51:38;9.10;94.30
73277;DHT22;61501;43.316;5.372;2024-01-30T05:54:03;9.10;94.70
73277;DHT22;61501;43.316;5.372;2024-01-30T05:56:29;9.10;94.70
73277;DHT22;61501;43.316;5.372;2024-01-30T05:58:55;9.10;94.30
73277;DHT22;61501;43.316;5.372;2024-01-30T06:01:21;9.00;94.40
73277;DHT22;61501;43.316;5.372;2024-01-30T06:03:46;9.00;94.00
73277;DHT22;61501;43.316;5.372;2024-01-30T06:06:12;9.00;94.20
73277;DHT22;61501;43.316;5.372;2024-01-30T06:08:38;9.00;93.60
73277;DHT22;61501;43.316;5.372;2024-01-30T06:11:03;9.00;94.00
73277;DHT22;61501;43.316;5.372;2024-01-30T06:13:29;8.90;94.30
73277;DHT22;61501;43.316;5.372;2024-01-30T06:15:57;8.90;94.40
73277;DHT22;61501;43.316;5.372;2024-01-30T06:18:25;9.00;94.10
73277;DHT22;61501;43.316;5.372;2024-01-30T06:20:52;8.90;93.80
73277;DHT22;61501;43.316;5.372;2024-01-30T06:23:18;9.00;93.80
73277;DHT22;61501;43.316;5.372;2024-01-30T06:25:43;8.90;94.00
73277;DHT22;61501;43.316;5.372;2024-01-30T06:28:09;9.00;94.00
73277;DHT22;61501;43.316;5.372;2024-01-30T06:30:35;9.00;94.00
73277;DHT22;61501;43.316;5.372;2024-01-30T06:33:00;9.00;93.80
73277;DHT22;61501;43.316;5.372;2024-01-30T06:35:27;8.90;93.90
73277;DHT22;61501;43.316;5.372;2024-01-30T06:37:54;8.90;94.10
73277;DHT22;61501;43.316;5.372;2024-01-30T06:40:20;8.90;94.20
73277;DHT22;61501;43.316;5.372;2024-01-30T06:42:45;8.90;94.10
73277;DHT22;61501;43.316;5.372;2024-01-30T06:45:11;8.90;94.40
73277;DHT22;61501;43.316;5.372;2024-01-30T06:47:37;8.90;94.60
73277;DHT22;61501;43.316;5.372;2024-01-30T06:50:02;9.00;94.50
73277;DHT22;61501;43.316;5.372;2024-01-30T06:52:28;8.90;94.30
73277;DHT22;61501;43.316;5.372;2024-01-30T06:54:54;8.90;95.20
73277;DHT22;61501;43.316;5.372;2024-01-30T06:57:20;9.00;95.00
73277;DHT22;61501;43.316;5.372;2024-01-30T06:59:46;9.00;95.20
73277;DHT22;61501;43.316;5.372;2024-01-30T07:02:12;9.00;95.40
73277;DHT22;61501;43.316;5.372;2024-01-30T07:04:38;8.90;95.80
73277;DHT22;61501;43.316;5.372;2024-01-30T07:07:04;9.00;96.10
73277;DHT22;61501;43.316;5.372;2024-01-30T07:09:31;9.00;96.30
73277;DHT22;61501;43.316;5.372;2024-01-30T07:11:56;9.00;96.70
73277;DHT22;61501;43.316;5.372;2024-01-30T07:14:24;9.00;97.00
73277;DHT22;61501;43.316;5.372;2024-01-30T07:16:49;9.00;97.00
73277;DHT22;61501;43.316;5.372;2024-01-30T07:19:16;9.00;97.30
73277;DHT22;61501;43.316;5.372;2024-01-30T07:21:42;9.00;97.50
73277;DHT22;61501;43.316;5.372;2024-01-30T07:24:07;9.00;97.20
73277;DHT22;61501;43.316;5.372;2024-01-30T07:26:33;9.00;97.60
73277;DHT22;61501;43.316;5.372;2024-01-30T07:28:59;9.10;97.70
73277;DHT22;61501;43.316;5.372;2024-01-30T07:31:24;9.00;97.70
73277;DHT22;61501;43.316;5.372;2024-01-30T07:33:50;9.10;97.50
73277;DHT22;61501;43.316;5.372;2024-01-30T07:36:16;9.10;97.60
73277;DHT22;61501;43.316;5.372;2024-01-30T07:38:41;9.20;97.80
73277;DHT22;61501;43.316;5.372;2024-01-30T07:41:08;9.30;97.90
73277;DHT22;61501;43.316;5.372;2024-01-30T07:43:33;9.30;98.20
73277;DHT22;61501;43.316;5.372;2024-01-30T07:45:59;9.30;98.30
73277;DHT22;61501;43.316;5.372;2024-01-30T07:48:26;9.40;98.50
73277;DHT22;61501;43.316;5.372;2024-01-30T07:50:52;9.40;98.80
73277;DHT22;61501;43.316;5.372;2024-01-30T07:53:18;9.40;99.10
73277;DHT22;61501;43.316;5.372;2024-01-30T07:55:48;9.50;99.30
73277;DHT22;61501;43.316;5.372;2024-01-30T07:58:14;9.50;99.60
73277;DHT22;61501;43.316;5.372;2024-01-30T08:00:39;9.60;99.70
73277;DHT22;61501;43.316;5.372;2024-01-30T08:03:05;9.60;99.90
73277;DHT22;61501;43.316;5.372;2024-01-30T08:05:31;9.60;99.90
73277;DHT22;61501;43.316;5.372;2024-01-30T08:07:57;9.70;99.90
73277;DHT22;61501;43.316;5.372;2024-01-30T08:10:22;9.70;99.90
73277;DHT22;61501;43.316;5.372;2024-01-30T08:12:48;9.70;99.90
73277;DHT22;61501;43.316;5.372;2024-01-30T08:15:14;9.80;99.90
73277;DHT22;61501;43.316;5.372;2024-01-30T08:17:39;9.80;99.90
73277;DHT22;61501;43.316;5.372;2024-01-30T08:20:06;9.80;99.90
73277;DHT22;61501;43.316;5.372;2024-01-30T08:22:33;9.90;99.90
73277;DHT22;61501;43.316;5.372;2024-01-30T08:24:59;10.00;99.90
73277;DHT22;61501;43.316;5.372;2024-01-30T08:27:24;10.00;99.90
73277;DHT22;61501;43.316;5.372;2024-01-30T08:29:50;10.10;99.50
73277;DHT22;61501;43.316;5.372;2024-01-30T08:32:16;10.30;99.00
73277;DHT22;61501;43.316;5.372;2024-01-30T08:34:42;10.40;98.60
73277;DHT22;61501;43.316;5.372;2024-01-30T08:37:07;10.50;98.00
73277;DHT22;61501;43.316;5.372;2024-01-30T08:39:33;10.60;96.80
73277;DHT22;61501;43.316;5.372;2024-01-30T08:41:59;10.70;96.40
73277;DHT22;61501;43.316;5.372;2024-01-30T08:44:25;10.70;95.80
73277;DHT22;61501;43.316;5.372;2024-01-30T08:46:50;10.70;95.70
73277;DHT22;61501;43.316;5.372;2024-01-30T08:49:16;10.80;96.30
73277;DHT22;61501;43.316;5.372;2024-01-30T08:51:42;10.80;95.70
73277;DHT22;61501;43.316;5.372;2024-01-30T08:54:08;11.00;95.90
73277;DHT22;61501;43.316;5.372;2024-01-30T08:56:33;10.90;96.00
73277;DHT22;61501;43.316;5.372;2024-01-30T08:58:59;11.00;96.50
73277;DHT22;61501;43.316;5.372;2024-01-30T09:01:25;11.20;97.10
73277;DHT22;61501;43.316;5.372;2024-01-30T09:03:51;11.20;97.50
73277;DHT22;61501;43.316;5.372;2024-01-30T09:06:17;11.30;97.80
73277;DHT22;61501;43.316;5.372;2024-01-30T09:08:43;11.50;97.90
73277;DHT22;61501;43.316;5.372;2024-01-30T09:11:12;11.60;98.00
73277;DHT22;61501;43.316;5.372;2024-01-30T09:13:38;11.70;98.00
73277;DHT22;61501;43.316;5.372;2024-01-30T09:16:04;11.90;97.90
73277;DHT22;61501;43.316;5.372;2024-01-30T09:18:30;11.80;98.50
73277;DHT22;61501;43.316;5.372;2024-01-30T09:20:56;11.80;99.00
73277;DHT22;61501;43.316;5.372;2024-01-30T09:23:22;11.90;99.40
73277;DHT22;61501;43.316;5.372;2024-01-30T09:25:48;12.00;99.90
73277;DHT22;61501;43.316;5.372;2024-01-30T09:28:14;12.20;99.90
73277;DHT22;61501;43.316;5.372;2024-01-30T09:30:40;12.20;99.90
73277;DHT22;61501;43.316;5.372;2024-01-30T09:33:06;12.30;99.90
73277;DHT22;61501;43.316;5.372;2024-01-30T09:35:32;12.40;99.90
73277;DHT22;61501;43.316;5.372;2024-01-30T09:37:58;12.40;99.90
73277;DHT22;61501;43.316;5.372;2024-01-30T09:40:24;12.60;99.90
73277;DHT22;61501;43.316;5.372;2024-01-30T09:42:50;12.70;99.90
73277;DHT22;61501;43.316;5.372;2024-01-30T09:45:18;12.80;99.90
73277;DHT22;61501;43.316;5.372;2024-01-30T09:47:45;13.00;99.90
73277;DHT22;61501;43.316;5.372;2024-01-30T09:50:15;13.00;99.90
73277;DHT22;61501;43.316;5.372;2024-01-30T09:52:45;13.00;99.90
73277;DHT22;61501;43.316;5.372;2024-01-30T09:55:14;13.20;99.90
73277;DHT22;61501;43.316;5.372;2024-01-30T09:57:42;13.30;99.90
73277;DHT22;61501;43.316;5.372;2024-01-30T10:00:08;13.40;99.90
73277;DHT22;61501;43.316;5.372;2024-01-30T10:02:34;13.50;99.90
73277;DHT22;61501;43.316;5.372;2024-01-30T10:05:01;13.50;99.90
73277;DHT22;61501;43.316;5.372;2024-01-30T10:07:26;13.70;99.90
73277;DHT22;61501;43.316;5.372;2024-01-30T10:09:53;13.70;99.90
73277;DHT22;61501;43.316;5.372;2024-01-30T10:12:20;13.70;99.90
73277;DHT22;61501;43.316;5.372;2024-01-30T10:14:46;13.80;99.90
73277;DHT22;61501;43.316;5.372;2024-01-30T10:17:12;13.90;99.90
73277;DHT22;61501;43.316;5.372;2024-01-30T10:19:39;13.90;99.90
73277;DHT22;61501;43.316;5.372;2024-01-30T10:22:05;13.80;99.90
73277;DHT22;61501;43.316;5.372;2024-01-30T10:24:33;13.90;99.90
73277;DHT22;61501;43.316;5.372;2024-01-30T10:26:58;13.90;99.90
73277;DHT22;61501;43.316;5.372;2024-01-30T10:29:24;14.00;99.90
73277;DHT22;61501;43.316;5.372;2024-01-30T10:32:04;14.20;99.90
73277;DHT22;61501;43.316;5.372;2024-01-30T10:34:30;14.30;99.90
73277;DHT22;61501;43.316;5.372;2024-01-30T10:37:16;14.10;99.90
73277;DHT22;61501;43.316;5.372;2024-01-30T10:39:43;14.20;99.90
73277;DHT22;61501;43.316;5.372;2024-01-30T10:42:15;14.10;99.90
73277;DHT22;61501;43.316;5.372;2024-01-30T10:44:51;14.20;99.90
73277;DHT22;61501;43.316;5.372;2024-01-30T10:47:28;14.30;99.90
73277;DHT22;61501;43.316;5.372;2024-01-30T10:49:55;14.00;99.90
73277;DHT22;61501;43.316;5.372;2024-01-30T10:52:23;13.80;99.90
73277;DHT22;61501;43.316;5.372;2024-01-30T10:54:50;13.90;99.90
73277;DHT22;61501;43.316;5.372;2024-01-30T10:57:17;14.10;99.90
73277;DHT22;61501;43.316;5.372;2024-01-30T10:59:43;13.80;99.90
73277;DHT22;61501;43.316;5.372;2024-01-30T11:02:10;13.90;99.90
73277;DHT22;61501;43.316;5.372;2024-01-30T11:04:37;14.00;99.90
73277;DHT22;61501;43.316;5.372;2024-01-30T11:07:13;14.00;99.90
73277;DHT22;61501;43.316;5.372;2024-01-30T11:09:39;14.00;99.90
73277;DHT22;61501;43.316;5.372;2024-01-30T11:12:12;13.80;99.90
73277;DHT22;61501;43.316;5.372;2024-01-30T11:14:38;13.80;99.90
73277;DHT22;61501;43.316;5.372;2024-01-30T11:17:05;13.80;99.90
73277;DHT22;61501;43.316;5.372;2024-01-30T11:19:32;13.70;99.90
73277;DHT22;61501;43.316;5.372;2024-01-30T11:21:58;13.50;99.90
73277;DHT22;61501;43.316;5.372;2024-01-30T11:24:24;13.40;99.90
73277;DHT22;61501;43.316;5.372;2024-01-30T11:26:55;13.40;99.90
73277;DHT22;61501;43.316;5.372;2024-01-30T11:29:27;13.40;99.90
73277;DHT22;61501;43.316;5.372;2024-01-30T11:31:58;13.40;99.90
73277;DHT22;61501;43.316;5.372;2024-01-30T11:34:24;13.30;99.90
73277;DHT22;61501;43.316;5.372;2024-01-30T11:36:56;13.30;99.90
73277;DHT22;61501;43.316;5.372;2024-01-30T11:39:26;13.60;99.90
73277;DHT22;61501;43.316;5.372;2024-01-30T11:41:52;13.60;99.90
73277;DHT22;61501;43.316;5.372;2024-01-30T11:44:22;13.60;99.90
73277;DHT22;61501;43.316;5.372;2024-01-30T11:46:48;13.70;99.90
73277;DHT22;61501;43.316;5.372;2024-01-30T11:49:15;13.80;99.90
73277;DHT22;61501;43.316;5.372;2024-01-30T11:51:41;13.80;99.90
73277;DHT22;61501;43.316;5.372;2024-01-30T11:54:07;14.00;99.90
73277;DHT22;61501;43.316;5.372;2024-01-30T11:56:33;14.00;99.90
73277;DHT22;61501;43.316;5.372;2024-01-30T11:58:59;14.10;99.90
73277;DHT22;61501;43.316;5.372;2024-01-30T12:01:26;14.30;99.90
73277;DHT22;61501;43.316;5.372;2024-01-30T12:03:52;14.50;99.90
73277;DHT22;61501;43.316;5.372;2024-01-30T12:06:18;15.20;99.90
73277;DHT22;61501;43.316;5.372;2024-01-30T12:08:59;15.50;99.90
73277;DHT22;61501;43.316;5.372;2024-01-30T12:11:25;16.30;99.90
73277;DHT22;61501;43.316;5.372;2024-01-30T12:13:52;17.50;99.90
73277;DHT22;61501;43.316;5.372;2024-01-30T12:16:18;18.30;97.60
73277;DHT22;61501;43.316;5.372;2024-01-30T12:18:44;18.10;98.80
73277;DHT22;61501;43.316;5.372;2024-01-30T12:21:09;18.10;97.80
73277;DHT22;61501;43.316;5.372;2024-01-30T12:23:35;17.80;98.00
73277;DHT22;61501;43.316;5.372;2024-01-30T12:26:01;17.60;98.60
73277;DHT22;61501;43.316;5.372;2024-01-30T12:28:29;17.90;98.60
73277;DHT22;61501;43.316;5.372;2024-01-30T12:31:02;17.70;99.90
73277;DHT22;61501;43.316;5.372;2024-01-30T12:33:29;19.00;96.00
73277;DHT22;61501;43.316;5.372;2024-01-30T12:35:56;18.80;94.80
73277;DHT22;61501;43.316;5.372;2024-01-30T12:38:23;18.50;97.30
73277;DHT22;61501;43.316;5.372;2024-01-30T12:40:50;18.10;96.60
73277;DHT22;61501;43.316;5.372;2024-01-30T12:43:15;17.90;97.10
73277;DHT22;61501;43.316;5.372;2024-01-30T12:45:42;18.50;96.20
73277;DHT22;61501;43.316;5.372;2024-01-30T12:48:08;18.30;95.80
73277;DHT22;61501;43.316;5.372;2024-01-30T12:50:34;17.90;96.30
73277;DHT22;61501;43.316;5.372;2024-01-30T12:53:00;18.00;95.70
73277;DHT22;61501;43.316;5.372;2024-01-30T12:55:26;17.40;98.20
73277;DHT22;61501;43.316;5.372;2024-01-30T12:57:54;17.10;99.30
73277;DHT22;61501;43.316;5.372;2024-01-30T13:00:20;17.00;99.90
73277;DHT22;61501;43.316;5.372;2024-01-30T13:02:46;16.70;99.90
73277;DHT22;61501;43.316;5.372;2024-01-30T13:05:12;17.00;99.90
73277;DHT22;61501;43.316;5.372;2024-01-30T13:07:38;16.90;99.90
73277;DHT22;61501;43.316;5.372;2024-01-30T13:10:04;17.00;99.90
73277;DHT22;61501;43.316;5.372;2024-01-30T13:12:30;16.70;99.90
73277;DHT22;61501;43.316;5.372;2024-01-30T13:15:00;16.80;99.90
73277;DHT22;61501;43.316;5.372;2024-01-30T13:17:30;16.40;99.90
73277;DHT22;61501;43.316;5.372;2024-01-30T13:19:55;16.00;99.90
73277;DHT22;61501;43.316;5.372;2024-01-30T13:22:21;17.70;99.90
73277;DHT22;61501;43.316;5.372;2024-01-30T13:24:47;18.10;98.10
73277;DHT22;61501;43.316;5.372;2024-01-30T13:27:13;18.20;97.20
73277;DHT22;61501;43.316;5.372;2024-01-30T13:29:40;18.70;97.50
73277;DHT22;61501;43.316;5.372;2024-01-30T13:32:05;18.60;95.70
73277;DHT22;61501;43.316;5.372;2024-01-30T13:34:31;18.80;95.30
73277;DHT22;61501;43.316;5.372;2024-01-30T13:36:57;18.30;96.60
73277;DHT22;61501;43.316;5.372;2024-01-30T13:39:23;18.60;95.50
73277;DHT22;61501;43.316;5.372;2024-01-30T13:41:49;18.80;96.80
73277;DHT22;61501;43.316;5.372;2024-01-30T13:44:15;18.60;95.80
73277;DHT22;61501;43.316;5.372;2024-01-30T13:46:43;18.60;95.90
73277;DHT22;61501;43.316;5.372;2024-01-30T13:49:08;18.80;96.50
73277;DHT22;61501;43.316;5.372;2024-01-30T13:51:34;18.70;95.50
73277;DHT22;61501;43.316;5.372;2024-01-30T13:54:00;17.90;98.30
73277;DHT22;61501;43.316;5.372;2024-01-30T13:56:25;18.40;96.60
73277;DHT22;61501;43.316;5.372;2024-01-30T13:58:52;18.70;95.70
73277;DHT22;61501;43.316;5.372;2024-01-30T14:01:18;19.00;95.50
73277;DHT22;61501;43.316;5.372;2024-01-30T14:03:43;19.20;94.70
73277;DHT22;61501;43.316;5.372;2024-01-30T14:06:09;18.50;97.20
73277;DHT22;61501;43.316;5.372;2024-01-30T14:08:35;18.90;95.80
73277;DHT22;61501;43.316;5.372;2024-01-30T14:11:00;19.20;94.00
73277;DHT22;61501;43.316;5.372;2024-01-30T14:13:26;19.20;93.90
73277;DHT22;61501;43.316;5.372;2024-01-30T14:15:52;18.80;94.80
73277;DHT22;61501;43.316;5.372;2024-01-30T14:18:18;18.70;95.30
73277;DHT22;61501;43.316;5.372;2024-01-30T14:20:44;18.90;94.40
73277;DHT22;61501;43.316;5.372;2024-01-30T14:23:09;18.80;94.30
73277;DHT22;61501;43.316;5.372;2024-01-30T14:25:35;19.20;93.50
73277;DHT22;61501;43.316;5.372;2024-01-30T14:28:01;18.40;95.20
73277;DHT22;61501;43.316;5.372;2024-01-30T14:30:26;18.10;96.80
73277;DHT22;61501;43.316;5.372;2024-01-30T14:32:52;18.20;95.80
73277;DHT22;61501;43.316;5.372;2024-01-30T14:35:18;18.00;96.40
73277;DHT22;61501;43.316;5.372;2024-01-30T14:37:45;17.80;97.70
73277;DHT22;61501;43.316;5.372;2024-01-30T14:40:11;18.10;96.60
73277;DHT22;61501;43.316;5.372;2024-01-30T14:42:36;18.20;96.80
73277;DHT22;61501;43.316;5.372;2024-01-30T14:45:03;18.60;94.80
73277;DHT22;61501;43.316;5.372;2024-01-30T14:47:29;18.30;96.30
73277;DHT22;61501;43.316;5.372;2024-01-30T14:49:56;18.60;95.90
73277;DHT22;61501;43.316;5.372;2024-01-30T14:52:22;18.80;94.50
73277;DHT22;61501;43.316;5.372;2024-01-30T14:54:48;19.30;92.70
73277;DHT22;61501;43.316;5.372;2024-01-30T14:57:14;18.90;93.30
73277;DHT22;61501;43.316;5.372;2024-01-30T14:59:40;18.20;95.90
73277;DHT22;61501;43.316;5.372;2024-01-30T15:02:06;18.30;95.30
73277;DHT22;61501;43.316;5.372;2024-01-30T15:04:32;17.20;98.60
73277;DHT22;61501;43.316;5.372;2024-01-30T15:06:58;16.10;99.90
73277;DHT22;61501;43.316;5.372;2024-01-30T15:09:23;16.60;99.90
73277;DHT22;61501;43.316;5.372;2024-01-30T15:11:52;17.20;99.90
73277;DHT22;61501;43.316;5.372;2024-01-30T15:14:17;16.90;99.90
73277;DHT22;61501;43.316;5.372;2024-01-30T15:16:43;16.00;99.90
73277;DHT22;61501;43.316;5.372;2024-01-30T15:19:09;15.80;99.90
73277;DHT22;61501;43.316;5.372;2024-01-30T15:21:35;15.90;99.90
73277;DHT22;61501;43.316;5.372;2024-01-30T15:24:02;16.30;99.90
73277;DHT22;61501;43.316;5.372;2024-01-30T15:26:28;15.80;99.90
73277;DHT22;61501;43.316;5.372;2024-01-30T15:28:54;16.00;99.90
73277;DHT22;61501;43.316;5.372;2024-01-30T15:31:19;16.60;99.90